Lynchburg, Virginia
Current Conditions -  °F | °C
As of 8:20 AM on Thursday 27 Nov 2014 (Local Time) from KLYH Reporting Station
Light Rain Light Rain  
Wind Chill:   Ceiling: 500
Heat Index:   Visibility: 5mi
Dew Point:   Wind: 0mph
Humidity: 97%   Direction: NA
Pressure: 30.03"   Gusts: NA
Location:  37.4°N, 79.15°W
Report Text: KLYH 271320Z 00000KT 5SM -RA BR BKN005 BKN010 OVC020 03/03 A3003 RMK AO2 RAB18 P0000 T00330028 $
Loading
Personal Weather Stations






























Interactive Weather Map New forecast layout! Learn more

10-Day Weather Forecast

Advertisements
Track Severe Weather on mobile